sensor_id;sensor_type;location;lat;lon;timestamp;pressure;altitude;pressure_sealevel;temperature;humidity
64876;BME280;51369;49.862;9.908;2023-05-29T00:00:29;98446.75;;;16.43;48.43
64876;BME280;51369;49.862;9.908;2023-05-29T00:02:55;98452.41;;;16.40;47.86
64876;BME280;51369;49.862;9.908;2023-05-29T00:05:20;98441.69;;;16.37;48.57
64876;BME280;51369;49.862;9.908;2023-05-29T00:07:46;98451.03;;;16.33;48.74
64876;BME280;51369;49.862;9.908;2023-05-29T00:10:13;98446.88;;;16.27;48.50
64876;BME280;51369;49.862;9.908;2023-05-29T00:12:39;98449.97;;;16.21;47.99
64876;BME280;51369;49.862;9.908;2023-05-29T00:15:05;98443.19;;;16.14;48.85
64876;BME280;51369;49.862;9.908;2023-05-29T00:17:31;98447.94;;;16.10;48.64
64876;BME280;51369;49.862;9.908;2023-05-29T00:20:00;98440.06;;;16.06;48.76
64876;BME280;51369;49.862;9.908;2023-05-29T00:22:26;98442.09;;;16.02;48.62
64876;BME280;51369;49.862;9.908;2023-05-29T00:24:52;98449.50;;;16.00;48.59
64876;BME280;51369;49.862;9.908;2023-05-29T00:27:17;98443.47;;;15.95;48.70
64876;BME280;51369;49.862;9.908;2023-05-29T00:29:43;98452.91;;;15.89;48.67
64876;BME280;51369;49.862;9.908;2023-05-29T00:32:09;98452.22;;;15.86;48.85
64876;BME280;51369;49.862;9.908;2023-05-29T00:34:34;98449.69;;;15.83;49.29
64876;BME280;51369;49.862;9.908;2023-05-29T00:37:00;98446.38;;;15.78;49.12
64876;BME280;51369;49.862;9.908;2023-05-29T00:39:26;98442.00;;;15.75;49.14
64876;BME280;51369;49.862;9.908;2023-05-29T00:41:52;98451.22;;;15.73;49.25
64876;BME280;51369;49.862;9.908;2023-05-29T00:44:21;98445.28;;;15.66;49.38
64876;BME280;51369;49.862;9.908;2023-05-29T00:46:52;98451.81;;;15.63;49.37
64876;BME280;51369;49.862;9.908;2023-05-29T00:49:20;98443.75;;;15.62;49.91
64876;BME280;51369;49.862;9.908;2023-05-29T00:51:47;98447.56;;;15.59;49.54
64876;BME280;51369;49.862;9.908;2023-05-29T00:54:17;98447.81;;;15.55;49.91
64876;BME280;51369;49.862;9.908;2023-05-29T00:56:46;98443.63;;;15.49;49.88
64876;BME280;51369;49.862;9.908;2023-05-29T00:59:11;98451.09;;;15.46;50.06
64876;BME280;51369;49.862;9.908;2023-05-29T01:01:38;98448.75;;;15.40;50.27
64876;BME280;51369;49.862;9.908;2023-05-29T01:04:05;98449.03;;;15.35;50.27
64876;BME280;51369;49.862;9.908;2023-05-29T01:06:35;98447.56;;;15.29;50.51
64876;BME280;51369;49.862;9.908;2023-05-29T01:09:00;98447.84;;;15.25;50.25
64876;BME280;51369;49.862;9.908;2023-05-29T01:17:28;98450.50;;;15.11;50.59
64876;BME280;51369;49.862;9.908;2023-05-29T01:23:19;98441.66;;;15.07;51.12
64876;BME280;51369;49.862;9.908;2023-05-29T01:28:26;98443.78;;;15.02;51.26
64876;BME280;51369;49.862;9.908;2023-05-29T01:30:54;98442.13;;;15.00;51.26
64876;BME280;51369;49.862;9.908;2023-05-29T01:33:20;98442.13;;;15.00;51.83
64876;BME280;51369;49.862;9.908;2023-05-29T01:35:45;98430.53;;;14.96;52.29
64876;BME280;51369;49.862;9.908;2023-05-29T01:38:11;98435.19;;;14.94;51.70
64876;BME280;51369;49.862;9.908;2023-05-29T01:40:37;98433.44;;;14.93;51.61
64876;BME280;51369;49.862;9.908;2023-05-29T01:43:03;98437.22;;;14.90;51.82
64876;BME280;51369;49.862;9.908;2023-05-29T01:45:29;98438.19;;;14.89;51.73
64876;BME280;51369;49.862;9.908;2023-05-29T01:47:55;98438.19;;;14.89;51.88
64876;BME280;51369;49.862;9.908;2023-05-29T01:50:22;98439.16;;;14.88;51.73
64876;BME280;51369;49.862;9.908;2023-05-29T01:52:49;98438.28;;;14.88;52.20
64876;BME280;51369;49.862;9.908;2023-05-29T01:55:15;98431.00;;;14.88;51.88
64876;BME280;51369;49.862;9.908;2023-05-29T01:57:41;98431.00;;;14.88;51.88
64876;BME280;51369;49.862;9.908;2023-05-29T02:00:07;98438.28;;;14.88;51.64
64876;BME280;51369;49.862;9.908;2023-05-29T02:02:39;98429.44;;;14.84;51.48
64876;BME280;51369;49.862;9.908;2023-05-29T02:05:07;98435.13;;;14.80;51.56
64876;BME280;51369;49.862;9.908;2023-05-29T02:07:33;98430.84;;;14.76;51.41
64876;BME280;51369;49.862;9.908;2023-05-29T02:09:59;98432.00;;;14.72;51.95
64876;BME280;51369;49.862;9.908;2023-05-29T02:12:24;98432.25;;;14.67;52.21
64876;BME280;51369;49.862;9.908;2023-05-29T02:14:49;98429.72;;;14.64;52.40
64876;BME280;51369;49.862;9.908;2023-05-29T02:17:15;98426.41;;;14.59;52.48
64876;BME280;51369;49.862;9.908;2023-05-29T02:19:40;98430.34;;;14.53;51.71
64876;BME280;51369;49.862;9.908;2023-05-29T02:22:07;98423.59;;;14.45;52.52
64876;BME280;51369;49.862;9.908;2023-05-29T02:24:33;98422.06;;;14.39;52.32
64876;BME280;51369;49.862;9.908;2023-05-29T02:26:59;98422.34;;;14.34;52.88
64876;BME280;51369;49.862;9.908;2023-05-29T02:29:24;98417.09;;;14.31;52.63
64876;BME280;51369;49.862;9.908;2023-05-29T02:31:53;98418.91;;;14.31;52.41
64876;BME280;51369;49.862;9.908;2023-05-29T02:34:18;98418.22;;;14.27;52.60
64876;BME280;51369;49.862;9.908;2023-05-29T02:36:44;98420.22;;;14.24;52.82
64876;BME280;51369;49.862;9.908;2023-05-29T02:39:09;98430.31;;;14.22;53.35
64876;BME280;51369;49.862;9.908;2023-05-29T02:41:34;98423.28;;;14.18;52.98
64876;BME280;51369;49.862;9.908;2023-05-29T02:44:00;98415.22;;;14.16;53.03
64876;BME280;51369;49.862;9.908;2023-05-29T02:46:25;98419.78;;;14.16;52.85
64876;BME280;51369;49.862;9.908;2023-05-29T02:48:50;98413.47;;;14.15;53.13
64876;BME280;51369;49.862;9.908;2023-05-29T02:51:16;98428.91;;;14.15;52.94
64876;BME280;51369;49.862;9.908;2023-05-29T02:53:42;98415.41;;;14.13;53.10
64876;BME280;51369;49.862;9.908;2023-05-29T02:56:07;98409.97;;;14.13;52.67
64876;BME280;51369;49.862;9.908;2023-05-29T02:58:34;98418.22;;;14.12;53.04
64876;BME280;51369;49.862;9.908;2023-05-29T03:01:01;98416.63;;;14.08;53.33
64876;BME280;51369;49.862;9.908;2023-05-29T03:03:29;98415.91;;;14.04;53.18
64876;BME280;51369;49.862;9.908;2023-05-29T03:05:54;98425.13;;;14.01;53.23
64876;BME280;51369;49.862;9.908;2023-05-29T03:08:20;98420.72;;;13.99;53.23
64876;BME280;51369;49.862;9.908;2023-05-29T03:10:45;98418.19;;;13.96;53.55
64876;BME280;51369;49.862;9.908;2023-05-29T03:13:13;98423.63;;;13.96;53.89
64876;BME280;51369;49.862;9.908;2023-05-29T03:15:47;98422.75;;;13.95;53.40
64876;BME280;51369;49.862;9.908;2023-05-29T03:18:13;98425.63;;;13.92;53.41
64876;BME280;51369;49.862;9.908;2023-05-29T03:20:38;98423.97;;;13.90;53.56
64876;BME280;51369;49.862;9.908;2023-05-29T03:23:04;98425.88;;;13.88;53.63
64876;BME280;51369;49.862;9.908;2023-05-29T03:25:31;98430.63;;;13.84;53.51
64876;BME280;51369;49.862;9.908;2023-05-29T03:27:57;98422.75;;;13.80;54.16
64876;BME280;51369;49.862;9.908;2023-05-29T03:30:22;98425.53;;;13.78;53.66
64876;BME280;51369;49.862;9.908;2023-05-29T03:32:49;98416.53;;;13.78;53.93
64876;BME280;51369;49.862;9.908;2023-05-29T03:35:15;98424.66;;;13.78;54.62
64876;BME280;51369;49.862;9.908;2023-05-29T03:37:42;98430.09;;;13.78;54.59
64876;BME280;51369;49.862;9.908;2023-05-29T03:40:08;98428.16;;;13.80;54.13
64876;BME280;51369;49.862;9.908;2023-05-29T03:42:34;98419.94;;;13.81;54.02
64876;BME280;51369;49.862;9.908;2023-05-29T03:45:01;98433.44;;;13.83;53.58
64876;BME280;51369;49.862;9.908;2023-05-29T03:47:27;98431.75;;;13.80;53.66
64876;BME280;51369;49.862;9.908;2023-05-29T03:49:54;98430.09;;;13.78;53.56
64876;BME280;51369;49.862;9.908;2023-05-29T03:52:20;98434.81;;;13.74;54.03
64876;BME280;51369;49.862;9.908;2023-05-29T03:54:46;98440.31;;;13.73;54.46
64876;BME280;51369;49.862;9.908;2023-05-29T03:57:11;98438.66;;;13.70;53.93
64876;BME280;51369;49.862;9.908;2023-05-29T03:59:37;98444.31;;;13.65;53.63
64876;BME280;51369;49.862;9.908;2023-05-29T04:02:04;98449.13;;;13.60;54.25
64876;BME280;51369;49.862;9.908;2023-05-29T04:04:29;98452.00;;;13.57;54.14
64876;BME280;51369;49.862;9.908;2023-05-29T04:06:55;98456.63;;;13.55;54.48
64876;BME280;51369;49.862;9.908;2023-05-29T04:09:20;98465.81;;;13.53;54.24
64876;BME280;51369;49.862;9.908;2023-05-29T04:11:46;98467.66;;;13.52;54.28
64876;BME280;51369;49.862;9.908;2023-05-29T04:14:12;98468.53;;;13.53;54.22
64876;BME280;51369;49.862;9.908;2023-05-29T04:16:37;98473.00;;;13.54;54.38
64876;BME280;51369;49.862;9.908;2023-05-29T04:19:02;98476.56;;;13.54;54.00
64876;BME280;51369;49.862;9.908;2023-05-29T04:21:31;98475.69;;;13.54;55.00
64876;BME280;51369;49.862;9.908;2023-05-29T04:24:00;98480.16;;;13.55;55.08
64876;BME280;51369;49.862;9.908;2023-05-29T04:26:25;98485.50;;;13.56;54.68
64876;BME280;51369;49.862;9.908;2023-05-29T04:28:54;98486.31;;;13.58;54.45
64876;BME280;51369;49.862;9.908;2023-05-29T04:31:24;98488.84;;;13.61;55.02
64876;BME280;51369;49.862;9.908;2023-05-29T04:33:53;98492.38;;;13.63;54.84
64876;BME280;51369;49.862;9.908;2023-05-29T04:36:23;98499.38;;;13.67;54.66
64876;BME280;51369;49.862;9.908;2023-05-29T04:38:54;98491.00;;;13.72;55.05
64876;BME280;51369;49.862;9.908;2023-05-29T04:41:21;98492.66;;;13.75;54.75
64876;BME280;51369;49.862;9.908;2023-05-29T04:43:49;98492.59;;;13.76;55.06
64876;BME280;51369;49.862;9.908;2023-05-29T04:46:17;98486.13;;;13.79;54.70
64876;BME280;51369;49.862;9.908;2023-05-29T04:48:43;98496.88;;;13.80;54.64
64876;BME280;51369;49.862;9.908;2023-05-29T04:51:09;98494.09;;;13.82;54.68
64876;BME280;51369;49.862;9.908;2023-05-29T04:53:38;98500.31;;;13.84;54.82
64876;BME280;51369;49.862;9.908;2023-05-29T04:56:05;98510.13;;;13.86;55.01
64876;BME280;51369;49.862;9.908;2023-05-29T04:58:30;98511.84;;;13.87;55.14
64876;BME280;51369;49.862;9.908;2023-05-29T05:00:56;98514.41;;;13.90;54.27
64876;BME280;51369;49.862;9.908;2023-05-29T05:03:23;98509.78;;;13.92;54.41
64876;BME280;51369;49.862;9.908;2023-05-29T05:05:51;98510.47;;;13.96;54.86
64876;BME280;51369;49.862;9.908;2023-05-29T05:08:17;98522.06;;;13.99;54.98
64876;BME280;51369;49.862;9.908;2023-05-29T05:10:43;98525.47;;;14.03;55.05
64876;BME280;51369;49.862;9.908;2023-05-29T05:13:09;98535.22;;;14.07;54.87
64876;BME280;51369;49.862;9.908;2023-05-29T05:15:36;98540.31;;;14.13;54.98
64876;BME280;51369;49.862;9.908;2023-05-29T05:18:01;98537.25;;;14.19;54.63
64876;BME280;51369;49.862;9.908;2023-05-29T05:20:28;98534.13;;;14.27;54.00
64876;BME280;51369;49.862;9.908;2023-05-29T05:22:57;98532.66;;;14.37;53.67
64876;BME280;51369;49.862;9.908;2023-05-29T05:25:25;98537.44;;;14.49;52.17
64876;BME280;51369;49.862;9.908;2023-05-29T05:27:50;98542.97;;;14.63;53.80
64876;BME280;51369;49.862;9.908;2023-05-29T05:30:16;98535.00;;;14.76;53.07
64876;BME280;51369;49.862;9.908;2023-05-29T05:32:42;98545.97;;;14.90;52.43
64876;BME280;51369;49.862;9.908;2023-05-29T05:35:07;98546.13;;;15.03;51.67
64876;BME280;51369;49.862;9.908;2023-05-29T05:37:35;98545.41;;;15.15;51.36
64876;BME280;51369;49.862;9.908;2023-05-29T05:40:02;98555.31;;;15.32;50.86
64876;BME280;51369;49.862;9.908;2023-05-29T05:42:29;98552.66;;;15.46;51.64
64876;BME280;51369;49.862;9.908;2023-05-29T05:45:01;98550.84;;;15.61;52.32
64876;BME280;51369;49.862;9.908;2023-05-29T05:47:27;98555.56;;;15.73;52.54
64876;BME280;51369;49.862;9.908;2023-05-29T05:49:56;98554.72;;;15.87;52.15
64876;BME280;51369;49.862;9.908;2023-05-29T05:52:23;98563.88;;;16.00;52.13
64876;BME280;51369;49.862;9.908;2023-05-29T05:54:48;98562.34;;;16.10;52.76
64876;BME280;51369;49.862;9.908;2023-05-29T05:57:14;98563.53;;;16.20;53.34
64876;BME280;51369;49.862;9.908;2023-05-29T05:59:40;98559.34;;;16.29;51.56
64876;BME280;51369;49.862;9.908;2023-05-29T06:02:06;98566.75;;;16.41;52.81
64876;BME280;51369;49.862;9.908;2023-05-29T06:04:31;98567.63;;;16.56;53.25
64876;BME280;51369;49.862;9.908;2023-05-29T06:06:57;98567.84;;;16.67;51.15
64876;BME280;51369;49.862;9.908;2023-05-29T06:09:22;98563.16;;;16.83;51.67
64876;BME280;51369;49.862;9.908;2023-05-29T06:11:48;98563.91;;;17.00;51.14
64876;BME280;51369;49.862;9.908;2023-05-29T06:14:14;98564.63;;;17.16;49.19
64876;BME280;51369;49.862;9.908;2023-05-29T06:16:41;98572.69;;;17.32;50.15
64876;BME280;51369;49.862;9.908;2023-05-29T06:19:07;98560.69;;;17.47;50.42
64876;BME280;51369;49.862;9.908;2023-05-29T06:21:46;98565.81;;;17.66;49.78
64876;BME280;51369;49.862;9.908;2023-05-29T06:24:12;98577.44;;;17.82;49.54
64876;BME280;51369;49.862;9.908;2023-05-29T06:26:39;98580.97;;;17.97;49.81
64876;BME280;51369;49.862;9.908;2023-05-29T06:29:06;98576.28;;;18.11;48.82
64876;BME280;51369;49.862;9.908;2023-05-29T06:31:32;98568.75;;;18.28;49.02
64876;BME280;51369;49.862;9.908;2023-05-29T06:33:58;98583.31;;;18.41;48.64
64876;BME280;51369;49.862;9.908;2023-05-29T06:36:24;98581.44;;;18.54;48.49
64876;BME280;51369;49.862;9.908;2023-05-29T06:38:50;98585.31;;;18.64;48.16
64876;BME280;51369;49.862;9.908;2023-05-29T06:41:16;98586.28;;;18.76;48.36
64876;BME280;51369;49.862;9.908;2023-05-29T06:43:41;98583.75;;;18.85;48.42
64876;BME280;51369;49.862;9.908;2023-05-29T06:46:08;98587.56;;;18.96;49.05
64876;BME280;51369;49.862;9.908;2023-05-29T06:48:34;98578.03;;;19.01;48.06
64876;BME280;51369;49.862;9.908;2023-05-29T06:51:00;98569.97;;;19.11;47.00
64876;BME280;51369;49.862;9.908;2023-05-29T06:53:55;98580.88;;;19.24;46.62
64876;BME280;51369;49.862;9.908;2023-05-29T06:56:21;98579.09;;;19.35;46.44
64876;BME280;51369;49.862;9.908;2023-05-29T06:58:47;98580.66;;;19.50;47.45
64876;BME280;51369;49.862;9.908;2023-05-29T07:01:14;98581.88;;;19.59;46.73
64876;BME280;51369;49.862;9.908;2023-05-29T07:03:51;98570.09;;;19.70;46.33
64876;BME280;51369;49.862;9.908;2023-05-29T07:06:17;98582.72;;;19.83;46.41
64876;BME280;51369;49.862;9.908;2023-05-29T07:08:42;98581.78;;;19.96;44.23
64876;BME280;51369;49.862;9.908;2023-05-29T07:11:08;98581.81;;;20.07;44.80
64876;BME280;51369;49.862;9.908;2023-05-29T07:13:33;98591.84;;;20.19;44.93
64876;BME280;51369;49.862;9.908;2023-05-29T07:15:59;98588.13;;;20.31;44.57
64876;BME280;51369;49.862;9.908;2023-05-29T07:18:31;98587.19;;;20.43;44.40
64876;BME280;51369;49.862;9.908;2023-05-29T07:20:57;98591.81;;;20.54;43.67
64876;BME280;51369;49.862;9.908;2023-05-29T07:23:24;98583.59;;;20.65;43.72
64876;BME280;51369;49.862;9.908;2023-05-29T07:25:49;98585.34;;;20.77;43.28
64876;BME280;51369;49.862;9.908;2023-05-29T07:28:15;98589.94;;;20.88;43.10
64876;BME280;51369;49.862;9.908;2023-05-29T07:30:41;98584.44;;;20.99;43.35
64876;BME280;51369;49.862;9.908;2023-05-29T07:33:07;98587.06;;;21.12;43.37
64876;BME280;51369;49.862;9.908;2023-05-29T07:35:32;98586.81;;;21.26;43.25
64876;BME280;51369;49.862;9.908;2023-05-29T07:37:59;98594.78;;;21.40;43.88
64876;BME280;51369;49.862;9.908;2023-05-29T07:40:25;98591.75;;;21.55;43.55
64876;BME280;51369;49.862;9.908;2023-05-29T07:43:11;98590.72;;;21.67;42.66
64876;BME280;51369;49.862;9.908;2023-05-29T07:45:45;98598.19;;;21.76;42.23
64876;BME280;51369;49.862;9.908;2023-05-29T07:48:10;98602.91;;;21.85;41.92
64876;BME280;51369;49.862;9.908;2023-05-29T07:50:35;98598.63;;;21.92;41.86
64876;BME280;51369;49.862;9.908;2023-05-29T07:53:02;98605.00;;;22.04;42.00
64876;BME280;51369;49.862;9.908;2023-05-29T07:55:28;98603.81;;;22.18;41.17
64876;BME280;51369;49.862;9.908;2023-05-29T07:57:54;98603.00;;;22.27;41.17
64876;BME280;51369;49.862;9.908;2023-05-29T08:00:19;98607.56;;;22.37;41.96
64876;BME280;51369;49.862;9.908;2023-05-29T08:02:44;98605.75;;;22.48;41.49
64876;BME280;51369;49.862;9.908;2023-05-29T08:05:33;98611.91;;;22.61;41.11
64876;BME280;51369;49.862;9.908;2023-05-29T08:08:01;98605.72;;;22.68;40.78
64876;BME280;51369;49.862;9.908;2023-05-29T08:10:26;98606.03;;;22.75;40.17
64876;BME280;51369;49.862;9.908;2023-05-29T08:12:52;98611.91;;;22.82;41.19
64876;BME280;51369;49.862;9.908;2023-05-29T08:15:19;98608.63;;;22.88;40.58
64876;BME280;51369;49.862;9.908;2023-05-29T08:17:44;98609.94;;;22.93;40.22
64876;BME280;51369;49.862;9.908;2023-05-29T08:20:10;98606.91;;;22.96;39.57
64876;BME280;51369;49.862;9.908;2023-05-29T08:22:35;98608.97;;;23.04;40.35
64876;BME280;51369;49.862;9.908;2023-05-29T08:25:01;98606.69;;;23.09;40.06
64876;BME280;51369;49.862;9.908;2023-05-29T08:27:26;98603.78;;;23.11;39.78
64876;BME280;51369;49.862;9.908;2023-05-29T08:29:51;98607.28;;;23.13;39.94
64876;BME280;51369;49.862;9.908;2023-05-29T08:32:17;98600.03;;;23.12;38.41
64876;BME280;51369;49.862;9.908;2023-05-29T08:34:42;98598.59;;;23.17;39.23
64876;BME280;51369;49.862;9.908;2023-05-29T08:37:10;98600.06;;;23.21;38.41
64876;BME280;51369;49.862;9.908;2023-05-29T08:39:36;98604.00;;;23.28;39.88
64876;BME280;51369;49.862;9.908;2023-05-29T08:42:10;98602.44;;;23.35;38.95
64876;BME280;51369;49.862;9.908;2023-05-29T08:44:39;98593.47;;;23.43;38.19
64876;BME280;51369;49.862;9.908;2023-05-29T08:47:06;98599.44;;;23.48;38.86
64876;BME280;51369;49.862;9.908;2023-05-29T08:49:42;98590.63;;;23.54;39.97
64876;BME280;51369;49.862;9.908;2023-05-29T08:52:23;98589.63;;;23.65;38.89
64876;BME280;51369;49.862;9.908;2023-05-29T08:54:51;98591.41;;;23.76;38.12
64876;BME280;51369;49.862;9.908;2023-05-29T08:57:17;98589.66;;;23.84;38.01
64876;BME280;51369;49.862;9.908;2023-05-29T08:59:43;98581.81;;;23.89;37.97
64876;BME280;51369;49.862;9.908;2023-05-29T09:02:10;98579.38;;;23.96;37.28
64876;BME280;51369;49.862;9.908;2023-05-29T09:04:41;98587.06;;;24.02;37.49
64876;BME280;51369;49.862;9.908;2023-05-29T09:07:07;98591.84;;;24.10;37.23
64876;BME280;51369;49.862;9.908;2023-05-29T09:09:33;98586.63;;;24.16;36.58
64876;BME280;51369;49.862;9.908;2023-05-29T09:11:59;98591.41;;;24.24;36.62
64876;BME280;51369;49.862;9.908;2023-05-29T09:14:43;98595.91;;;24.25;36.28
64876;BME280;51369;49.862;9.908;2023-05-29T09:17:10;98592.41;;;24.32;36.11
64876;BME280;51369;49.862;9.908;2023-05-29T09:19:36;98596.34;;;24.40;36.69
64876;BME280;51369;49.862;9.908;2023-05-29T09:22:08;98598.66;;;24.44;35.65
64876;BME280;51369;49.862;9.908;2023-05-29T09:24:35;98585.00;;;24.52;36.75
64876;BME280;51369;49.862;9.908;2023-05-29T09:27:02;98587.16;;;24.58;36.08
64876;BME280;51369;49.862;9.908;2023-05-29T09:29:32;98602.41;;;24.62;36.12
64876;BME280;51369;49.862;9.908;2023-05-29T09:31:58;98607.03;;;24.72;36.99
64876;BME280;51369;49.862;9.908;2023-05-29T09:34:26;98595.25;;;24.79;36.46
64876;BME280;51369;49.862;9.908;2023-05-29T09:36:53;98599.00;;;24.88;36.00
64876;BME280;51369;49.862;9.908;2023-05-29T09:39:18;98600.13;;;24.95;36.46
64876;BME280;51369;49.862;9.908;2023-05-29T09:41:45;98605.41;;;24.98;35.30
64876;BME280;51369;49.862;9.908;2023-05-29T09:44:12;98609.31;;;25.05;35.66
64876;BME280;51369;49.862;9.908;2023-05-29T09:46:39;98599.38;;;25.12;34.63
64876;BME280;51369;49.862;9.908;2023-05-29T09:49:11;98599.50;;;25.20;34.61
64876;BME280;51369;49.862;9.908;2023-05-29T09:51:36;98587.22;;;25.33;35.46
64876;BME280;51369;49.862;9.908;2023-05-29T09:54:18;98599.66;;;25.46;35.70
64876;BME280;51369;49.862;9.908;2023-05-29T09:56:44;98599.00;;;25.62;35.39
64876;BME280;51369;49.862;9.908;2023-05-29T09:59:11;98602.75;;;25.71;34.56
64876;BME280;51369;49.862;9.908;2023-05-29T10:01:39;98604.75;;;25.78;33.47
64876;BME280;51369;49.862;9.908;2023-05-29T10:04:07;98604.13;;;25.84;34.25
64876;BME280;51369;49.862;9.908;2023-05-29T10:06:35;98589.66;;;25.90;34.92
64876;BME280;51369;49.862;9.908;2023-05-29T10:09:02;98603.72;;;25.97;34.32
64876;BME280;51369;49.862;9.908;2023-05-29T10:11:29;98588.06;;;26.06;34.87
64876;BME280;51369;49.862;9.908;2023-05-29T10:13:57;98586.94;;;26.16;34.85
64876;BME280;51369;49.862;9.908;2023-05-29T10:16:23;98578.16;;;26.21;33.73
64876;BME280;51369;49.862;9.908;2023-05-29T10:18:56;98594.13;;;26.27;34.35
64876;BME280;51369;49.862;9.908;2023-05-29T10:21:25;98597.31;;;26.32;33.08
64876;BME280;51369;49.862;9.908;2023-05-29T10:23:52;98597.16;;;26.34;34.23
64876;BME280;51369;49.862;9.908;2023-05-29T10:26:24;98593.53;;;26.33;32.77
64876;BME280;51369;49.862;9.908;2023-05-29T10:37:48;98587.22;;;26.67;32.99
64876;BME280;51369;49.862;9.908;2023-05-29T10:40:15;98591.31;;;26.80;33.01
64876;BME280;51369;49.862;9.908;2023-05-29T10:42:44;98590.34;;;26.89;33.01
64876;BME280;51369;49.862;9.908;2023-05-29T10:45:10;98584.88;;;26.98;33.18
64876;BME280;51369;49.862;9.908;2023-05-29T10:47:38;98594.66;;;27.10;33.77
64876;BME280;51369;49.862;9.908;2023-05-29T10:50:05;98582.94;;;27.24;33.79
64876;BME280;51369;49.862;9.908;2023-05-29T10:52:34;98574.19;;;27.45;37.06
64876;BME280;51369;49.862;9.908;2023-05-29T10:55:01;98580.53;;;27.63;34.63
64876;BME280;51369;49.862;9.908;2023-05-29T10:57:29;98573.09;;;27.80;32.88
64876;BME280;51369;49.862;9.908;2023-05-29T11:00:04;98576.78;;;27.97;34.53
64876;BME280;51369;49.862;9.908;2023-05-29T11:02:32;98568.81;;;28.10;32.26
64876;BME280;51369;49.862;9.908;2023-05-29T11:05:22;98581.13;;;28.07;32.00
64876;BME280;51369;49.862;9.908;2023-05-29T11:07:57;98578.34;;;28.07;32.53
64876;BME280;51369;49.862;9.908;2023-05-29T11:10:42;98580.59;;;28.04;32.69
64876;BME280;51369;49.862;9.908;2023-05-29T11:13:09;98579.56;;;28.05;33.18
64876;BME280;51369;49.862;9.908;2023-05-29T11:15:36;98574.19;;;28.03;32.31
64876;BME280;51369;49.862;9.908;2023-05-29T11:18:08;98579.41;;;28.06;34.87
64876;BME280;51369;49.862;9.908;2023-05-29T11:20:50;98574.72;;;28.07;33.09
64876;BME280;51369;49.862;9.908;2023-05-29T11:23:17;98571.59;;;28.18;36.21
64876;BME280;51369;49.862;9.908;2023-05-29T11:25:44;98572.34;;;28.28;35.30
64876;BME280;51369;49.862;9.908;2023-05-29T11:28:11;98569.22;;;28.39;35.85
64876;BME280;51369;49.862;9.908;2023-05-29T11:30:45;98562.44;;;28.50;32.96
64876;BME280;51369;49.862;9.908;2023-05-29T11:33:23;98569.03;;;28.65;32.77
64876;BME280;51369;49.862;9.908;2023-05-29T11:36:03;98558.94;;;28.80;32.83
64876;BME280;51369;49.862;9.908;2023-05-29T11:38:29;98560.50;;;28.99;33.42
64876;BME280;51369;49.862;9.908;2023-05-29T11:40:55;98573.50;;;29.15;32.73
64876;BME280;51369;49.862;9.908;2023-05-29T11:43:21;98558.16;;;29.27;33.82
64876;BME280;51369;49.862;9.908;2023-05-29T11:45:47;98554.13;;;29.38;33.59
64876;BME280;51369;49.862;9.908;2023-05-29T11:48:12;98554.13;;;29.46;33.59
64876;BME280;51369;49.862;9.908;2023-05-29T11:50:38;98555.53;;;29.42;30.82
64876;BME280;51369;49.862;9.908;2023-05-29T11:53:06;98552.03;;;29.40;32.24
64876;BME280;51369;49.862;9.908;2023-05-29T11:55:31;98547.31;;;29.40;31.93
64876;BME280;51369;49.862;9.908;2023-05-29T11:57:59;98554.97;;;29.38;31.05
64876;BME280;51369;49.862;9.908;2023-05-29T12:00:25;98547.69;;;29.37;31.36
64876;BME280;51369;49.862;9.908;2023-05-29T12:02:52;98547.53;;;29.31;30.96
64876;BME280;51369;49.862;9.908;2023-05-29T12:05:17;98545.81;;;29.30;31.51
64876;BME280;51369;49.862;9.908;2023-05-29T12:07:54;98548.38;;;29.39;33.25
64876;BME280;51369;49.862;9.908;2023-05-29T12:10:22;98550.56;;;29.52;30.72
64876;BME280;51369;49.862;9.908;2023-05-29T12:12:52;98552.81;;;29.57;31.05
64876;BME280;51369;49.862;9.908;2023-05-29T12:15:18;98534.53;;;29.62;30.87
64876;BME280;51369;49.862;9.908;2023-05-29T12:17:45;98540.78;;;29.64;29.66
64876;BME280;51369;49.862;9.908;2023-05-29T12:20:12;98541.41;;;29.74;34.11
64876;BME280;51369;49.862;9.908;2023-05-29T12:22:39;98536.84;;;29.82;31.67
64876;BME280;51369;49.862;9.908;2023-05-29T12:25:16;98539.41;;;29.91;34.02
64876;BME280;51369;49.862;9.908;2023-05-29T12:27:44;98546.13;;;29.97;30.20
64876;BME280;51369;49.862;9.908;2023-05-29T12:30:19;98543.69;;;30.02;30.00
64876;BME280;51369;49.862;9.908;2023-05-29T12:32:47;98534.06;;;30.13;29.73
64876;BME280;51369;49.862;9.908;2023-05-29T12:35:18;98543.72;;;30.25;30.66
64876;BME280;51369;49.862;9.908;2023-05-29T12:38:00;98533.25;;;30.27;29.59
64876;BME280;51369;49.862;9.908;2023-05-29T12:40:32;98531.06;;;30.37;32.08
64876;BME280;51369;49.862;9.908;2023-05-29T12:43:07;98533.59;;;30.47;29.60
64876;BME280;51369;49.862;9.908;2023-05-29T12:45:36;98532.63;;;30.62;29.60
64876;BME280;51369;49.862;9.908;2023-05-29T12:48:03;98534.16;;;30.65;28.98
64876;BME280;51369;49.862;9.908;2023-05-29T12:50:32;98531.25;;;30.58;30.56
64876;BME280;51369;49.862;9.908;2023-05-29T12:53:11;98536.84;;;30.58;30.72
64876;BME280;51369;49.862;9.908;2023-05-29T12:55:39;98541.53;;;30.58;29.05
64876;BME280;51369;49.862;9.908;2023-05-29T12:58:06;98528.97;;;30.62;28.55
64876;BME280;51369;49.862;9.908;2023-05-29T13:00:37;98533.41;;;30.71;30.28
64876;BME280;51369;49.862;9.908;2023-05-29T13:03:04;98530.81;;;30.84;30.25
64876;BME280;51369;49.862;9.908;2023-05-29T13:05:29;98541.69;;;30.94;31.71
64876;BME280;51369;49.862;9.908;2023-05-29T13:07:55;98524.69;;;31.03;31.59
64876;BME280;51369;49.862;9.908;2023-05-29T13:10:21;98524.50;;;31.05;29.67
64876;BME280;51369;49.862;9.908;2023-05-29T13:12:48;98532.00;;;31.04;28.69
64876;BME280;51369;49.862;9.908;2023-05-29T13:15:18;98541.63;;;31.02;28.15
64876;BME280;51369;49.862;9.908;2023-05-29T13:17:44;98538.53;;;30.97;27.61
64876;BME280;51369;49.862;9.908;2023-05-29T13:20:11;98530.94;;;30.91;28.94
64876;BME280;51369;49.862;9.908;2023-05-29T13:22:41;98514.19;;;30.76;27.24